This is the latest recevied weather packets stored in our database for station/object KG7DQI-13. If no packets are shown the sender has not sent any weather packets the latest 10 day(s).
| Time | Temp. | Humidity | Pressure | Rain* | Wind** | Luminosity | Snow |
|---|---|---|---|---|---|---|---|
| 1788348895 | 9.44° C | 79% | 910.1 hPa | 0 mm | - | 0 W/m² | - |
| 1788346186 | 11.11° C | 77% | 910 hPa | 0 mm | - | 0 W/m² | - |
| 1788345283 | 11.67° C | 76% | 910.1 hPa | 0 mm | - | 0 W/m² | - |
| 1788344378 | 12.22° C | 76% | 910 hPa | 0 mm | - | 0 W/m² | - |
| 1788343492 | 12.22° C | 75% | 910.1 hPa | 0 mm | - | 0 W/m² | - |
| 1788342626 | 12.22° C | 74% | 910.1 hPa | 0 mm | - | 0 W/m² | - |
| 1788340849 | 12.22° C | 77% | 910.2 hPa | 0 mm | - | 0 W/m² | - |
| 1788339903 | 11.67° C | 76% | 910.4 hPa | 0 mm | - | 0 W/m² | - |
| 1788339026 | 12.22° C | 76% | 910.4 hPa | 0 mm | - | 0 W/m² | - |
| 1788338120 | 12.22° C | 75% | 910.3 hPa | 0 mm | - | 0 W/m² | - |
| 1788336351 | 12.22° C | 75% | 910.2 hPa | 0 mm | - | 0 W/m² | - |
| 1788335455 | 12.78° C | 74% | 910.1 hPa | 0 mm | - | 0 W/m² | - |
| 1788333607 | 12.78° C | 74% | 910 hPa | 0 mm | - | 0 W/m² | - |
| 1788332717 | 12.78° C | 73% | 910.2 hPa | 0 mm | - | 0 W/m² | - |
| 1788331849 | 13.33° C | 73% | 910.2 hPa | 0 mm | - | 0 W/m² | - |
| 1788330947 | 13.33° C | 73% | 910.3 hPa | 0 mm | - | 0 W/m² | - |
| 1788329143 | 13.89° C | 70% | 910.3 hPa | 0 mm | - | 0 W/m² | - |
| 1788328241 | 13.89° C | 69% | 910.3 hPa | 0 mm | - | 0 W/m² | - |
| 1788326499 | 14.44° C | 67% | 910.3 hPa | 0 mm | - | 0 W/m² | - |
| 1788325629 | 14.44° C | 65% | 910.2 hPa | 0 mm | - | 0 W/m² | - |
| 1788323822 | 15° C | 64% | 909.8 hPa | 0 mm | - | 0 W/m² | - |
| 1788322050 | 15° C | 64% | 909.1 hPa | 0 mm | - | 0 W/m² | - |
| 1788295876 | 26.67° C | 26% | 907.6 hPa | 0 mm | - | 800 W/m² | - |
| 1788289557 | 26.11° C | 32% | 908.7 hPa | 0 mm | - | 719 W/m² | - |
| 1788284191 | 22.22° C | 41% | 908.8 hPa | 0 mm | - | 563 W/m² | - |
* Rain latest hour (hover to see other rain measurements)
** Current wind speed in m/s (hover to see current wind gust speed)